sensor_id;sensor_type;location;lat;lon;timestamp;P1;durP1;ratioP1;P2;durP2;ratioP2
64938;SDS011;51453;47.738;7.420;2023-07-09T00:00:22;9.90;;;5.13;;
64938;SDS011;51453;47.738;7.420;2023-07-09T00:02:48;9.65;;;5.05;;
64938;SDS011;51453;47.738;7.420;2023-07-09T00:05:15;9.23;;;5.15;;
64938;SDS011;51453;47.738;7.420;2023-07-09T00:07:42;10.00;;;5.47;;
64938;SDS011;51453;47.738;7.420;2023-07-09T00:10:17;8.38;;;5.68;;
64938;SDS011;51453;47.738;7.420;2023-07-09T00:12:44;8.32;;;5.50;;
64938;SDS011;51453;47.738;7.420;2023-07-09T00:15:12;8.00;;;5.70;;
64938;SDS011;51453;47.738;7.420;2023-07-09T00:17:41;6.80;;;4.80;;
64938;SDS011;51453;47.738;7.420;2023-07-09T00:20:10;9.27;;;5.30;;
64938;SDS011;51453;47.738;7.420;2023-07-09T00:22:39;8.60;;;6.15;;
64938;SDS011;51453;47.738;7.420;2023-07-09T00:25:07;8.05;;;5.80;;
64938;SDS011;51453;47.738;7.420;2023-07-09T00:27:38;8.85;;;5.72;;
64938;SDS011;51453;47.738;7.420;2023-07-09T00:30:12;9.13;;;5.80;;
64938;SDS011;51453;47.738;7.420;2023-07-09T00:32:41;9.30;;;5.88;;
64938;SDS011;51453;47.738;7.420;2023-07-09T00:35:09;13.60;;;6.03;;
64938;SDS011;51453;47.738;7.420;2023-07-09T00:37:40;10.90;;;6.20;;
64938;SDS011;51453;47.738;7.420;2023-07-09T00:40:16;15.73;;;6.75;;
64938;SDS011;51453;47.738;7.420;2023-07-09T00:42:46;8.77;;;6.70;;
64938;SDS011;51453;47.738;7.420;2023-07-09T00:45:23;11.18;;;6.50;;
64938;SDS011;51453;47.738;7.420;2023-07-09T00:52:54;7.63;;;6.10;;
64938;SDS011;51453;47.738;7.420;2023-07-09T00:55:23;8.40;;;6.45;;
64938;SDS011;51453;47.738;7.420;2023-07-09T00:57:54;9.27;;;6.65;;
64938;SDS011;51453;47.738;7.420;2023-07-09T01:00:25;11.10;;;6.28;;
64938;SDS011;51453;47.738;7.420;2023-07-09T01:02:55;8.07;;;5.90;;
64938;SDS011;51453;47.738;7.420;2023-07-09T01:05:23;9.80;;;5.82;;
64938;SDS011;51453;47.738;7.420;2023-07-09T01:07:48;11.43;;;6.20;;
64938;SDS011;51453;47.738;7.420;2023-07-09T01:10:16;6.75;;;5.75;;
64938;SDS011;51453;47.738;7.420;2023-07-09T01:12:42;8.05;;;5.60;;
64938;SDS011;51453;47.738;7.420;2023-07-09T01:15:10;8.43;;;6.00;;
64938;SDS011;51453;47.738;7.420;2023-07-09T01:17:36;9.95;;;6.00;;
64938;SDS011;51453;47.738;7.420;2023-07-09T01:20:02;7.55;;;5.57;;
64938;SDS011;51453;47.738;7.420;2023-07-09T01:22:28;10.00;;;6.00;;
64938;SDS011;51453;47.738;7.420;2023-07-09T01:27:30;8.20;;;5.93;;
64938;SDS011;51453;47.738;7.420;2023-07-09T01:30:03;9.85;;;6.20;;
64938;SDS011;51453;47.738;7.420;2023-07-09T01:32:42;11.18;;;5.90;;
64938;SDS011;51453;47.738;7.420;2023-07-09T01:35:11;9.95;;;6.55;;
64938;SDS011;51453;47.738;7.420;2023-07-09T01:37:40;13.27;;;6.32;;
64938;SDS011;51453;47.738;7.420;2023-07-09T01:40:07;8.32;;;5.82;;
64938;SDS011;51453;47.738;7.420;2023-07-09T01:42:34;8.32;;;5.80;;
64938;SDS011;51453;47.738;7.420;2023-07-09T01:45:03;10.30;;;6.18;;
64938;SDS011;51453;47.738;7.420;2023-07-09T01:47:29;8.82;;;6.18;;
64938;SDS011;51453;47.738;7.420;2023-07-09T01:49:55;10.88;;;6.53;;
64938;SDS011;51453;47.738;7.420;2023-07-09T01:52:22;11.30;;;6.22;;
64938;SDS011;51453;47.738;7.420;2023-07-09T01:54:50;8.23;;;6.03;;
64938;SDS011;51453;47.738;7.420;2023-07-09T01:57:17;8.23;;;5.88;;
64938;SDS011;51453;47.738;7.420;2023-07-09T02:00:05;9.50;;;6.03;;
64938;SDS011;51453;47.738;7.420;2023-07-09T02:02:36;12.00;;;6.38;;
64938;SDS011;51453;47.738;7.420;2023-07-09T02:05:03;9.23;;;5.63;;
64938;SDS011;51453;47.738;7.420;2023-07-09T02:07:30;10.45;;;5.82;;
64938;SDS011;51453;47.738;7.420;2023-07-09T02:09:56;9.88;;;5.35;;
64938;SDS011;51453;47.738;7.420;2023-07-09T02:12:23;10.20;;;5.28;;
64938;SDS011;51453;47.738;7.420;2023-07-09T02:14:49;11.30;;;5.18;;
64938;SDS011;51453;47.738;7.420;2023-07-09T02:17:15;12.73;;;5.45;;
64938;SDS011;51453;47.738;7.420;2023-07-09T02:19:41;7.78;;;4.93;;
64938;SDS011;51453;47.738;7.420;2023-07-09T02:22:07;6.50;;;4.93;;
64938;SDS011;51453;47.738;7.420;2023-07-09T02:24:33;9.68;;;5.10;;
64938;SDS011;51453;47.738;7.420;2023-07-09T02:27:00;7.57;;;4.97;;
64938;SDS011;51453;47.738;7.420;2023-07-09T02:29:27;8.25;;;4.90;;
64938;SDS011;51453;47.738;7.420;2023-07-09T02:31:55;8.65;;;5.15;;
64938;SDS011;51453;47.738;7.420;2023-07-09T02:34:22;8.95;;;5.15;;
64938;SDS011;51453;47.738;7.420;2023-07-09T02:36:50;8.15;;;5.03;;
64938;SDS011;51453;47.738;7.420;2023-07-09T02:39:17;7.22;;;4.97;;
64938;SDS011;51453;47.738;7.420;2023-07-09T02:41:44;8.15;;;4.90;;
64938;SDS011;51453;47.738;7.420;2023-07-09T02:44:10;5.97;;;4.43;;
64938;SDS011;51453;47.738;7.420;2023-07-09T02:46:36;7.80;;;4.93;;
64938;SDS011;51453;47.738;7.420;2023-07-09T02:49:05;11.52;;;4.97;;
64938;SDS011;51453;47.738;7.420;2023-07-09T02:51:31;8.50;;;5.25;;
64938;SDS011;51453;47.738;7.420;2023-07-09T02:53:58;6.35;;;4.63;;
64938;SDS011;51453;47.738;7.420;2023-07-09T02:56:25;8.35;;;4.38;;
64938;SDS011;51453;47.738;7.420;2023-07-09T02:58:51;7.85;;;4.72;;
64938;SDS011;51453;47.738;7.420;2023-07-09T03:01:17;7.85;;;4.88;;
64938;SDS011;51453;47.738;7.420;2023-07-09T03:03:49;7.25;;;4.70;;
64938;SDS011;51453;47.738;7.420;2023-07-09T03:06:16;9.20;;;4.38;;
64938;SDS011;51453;47.738;7.420;2023-07-09T03:08:41;6.93;;;4.60;;
64938;SDS011;51453;47.738;7.420;2023-07-09T03:11:10;7.40;;;4.60;;
64938;SDS011;51453;47.738;7.420;2023-07-09T03:13:37;6.03;;;4.10;;
64938;SDS011;51453;47.738;7.420;2023-07-09T03:16:03;5.43;;;4.30;;
64938;SDS011;51453;47.738;7.420;2023-07-09T03:18:28;6.68;;;4.40;;
64938;SDS011;51453;47.738;7.420;2023-07-09T03:20:54;7.35;;;4.63;;
64938;SDS011;51453;47.738;7.420;2023-07-09T03:23:20;8.23;;;4.70;;
64938;SDS011;51453;47.738;7.420;2023-07-09T03:25:46;7.25;;;4.53;;
64938;SDS011;51453;47.738;7.420;2023-07-09T03:28:12;9.48;;;4.43;;
64938;SDS011;51453;47.738;7.420;2023-07-09T03:30:44;8.50;;;4.30;;
64938;SDS011;51453;47.738;7.420;2023-07-09T03:33:12;6.35;;;4.20;;
64938;SDS011;51453;47.738;7.420;2023-07-09T03:35:38;6.63;;;4.65;;
64938;SDS011;51453;47.738;7.420;2023-07-09T03:38:05;7.20;;;4.68;;
64938;SDS011;51453;47.738;7.420;2023-07-09T03:40:32;5.93;;;4.18;;
64938;SDS011;51453;47.738;7.420;2023-07-09T03:42:57;7.25;;;4.57;;
64938;SDS011;51453;47.738;7.420;2023-07-09T03:45:23;7.07;;;4.15;;
64938;SDS011;51453;47.738;7.420;2023-07-09T03:47:49;5.82;;;4.72;;
64938;SDS011;51453;47.738;7.420;2023-07-09T03:50:15;5.75;;;4.45;;
64938;SDS011;51453;47.738;7.420;2023-07-09T03:52:41;8.30;;;4.65;;
64938;SDS011;51453;47.738;7.420;2023-07-09T03:55:07;7.70;;;4.10;;
64938;SDS011;51453;47.738;7.420;2023-07-09T03:57:33;8.98;;;4.40;;
64938;SDS011;51453;47.738;7.420;2023-07-09T03:59:59;7.80;;;4.45;;
64938;SDS011;51453;47.738;7.420;2023-07-09T04:02:25;6.13;;;4.30;;
64938;SDS011;51453;47.738;7.420;2023-07-09T04:04:51;7.63;;;4.38;;
64938;SDS011;51453;47.738;7.420;2023-07-09T04:07:17;8.80;;;4.57;;
64938;SDS011;51453;47.738;7.420;2023-07-09T04:09:42;8.68;;;4.43;;
64938;SDS011;51453;47.738;7.420;2023-07-09T04:12:08;8.35;;;4.40;;
64938;SDS011;51453;47.738;7.420;2023-07-09T04:14:35;9.38;;;4.70;;
64938;SDS011;51453;47.738;7.420;2023-07-09T04:17:00;13.13;;;4.90;;
64938;SDS011;51453;47.738;7.420;2023-07-09T04:19:26;11.18;;;5.43;;
64938;SDS011;51453;47.738;7.420;2023-07-09T04:21:52;9.95;;;4.60;;
64938;SDS011;51453;47.738;7.420;2023-07-09T04:24:17;6.97;;;4.72;;
64938;SDS011;51453;47.738;7.420;2023-07-09T04:26:44;11.02;;;4.60;;
64938;SDS011;51453;47.738;7.420;2023-07-09T04:29:10;7.63;;;4.50;;
64938;SDS011;51453;47.738;7.420;2023-07-09T04:31:36;11.93;;;4.55;;
64938;SDS011;51453;47.738;7.420;2023-07-09T04:34:02;6.70;;;4.32;;
64938;SDS011;51453;47.738;7.420;2023-07-09T04:36:29;9.15;;;4.47;;
64938;SDS011;51453;47.738;7.420;2023-07-09T04:38:55;9.90;;;4.80;;
64938;SDS011;51453;47.738;7.420;2023-07-09T04:41:20;11.57;;;4.43;;
64938;SDS011;51453;47.738;7.420;2023-07-09T04:43:46;6.82;;;4.10;;
64938;SDS011;51453;47.738;7.420;2023-07-09T04:46:11;7.72;;;4.15;;
64938;SDS011;51453;47.738;7.420;2023-07-09T04:48:37;8.85;;;4.20;;
64938;SDS011;51453;47.738;7.420;2023-07-09T04:51:03;9.88;;;4.15;;
64938;SDS011;51453;47.738;7.420;2023-07-09T04:53:29;8.50;;;4.32;;
64938;SDS011;51453;47.738;7.420;2023-07-09T04:55:55;6.80;;;3.80;;
64938;SDS011;51453;47.738;7.420;2023-07-09T04:58:20;8.05;;;3.70;;
64938;SDS011;51453;47.738;7.420;2023-07-09T05:00:46;5.38;;;3.70;;
64938;SDS011;51453;47.738;7.420;2023-07-09T05:03:12;11.82;;;4.05;;
64938;SDS011;51453;47.738;7.420;2023-07-09T05:05:42;6.40;;;4.00;;
64938;SDS011;51453;47.738;7.420;2023-07-09T05:08:09;10.05;;;3.88;;
64938;SDS011;51453;47.738;7.420;2023-07-09T05:10:40;10.07;;;3.85;;
64938;SDS011;51453;47.738;7.420;2023-07-09T05:13:06;10.77;;;3.45;;
64938;SDS011;51453;47.738;7.420;2023-07-09T05:15:32;5.13;;;3.35;;
64938;SDS011;51453;47.738;7.420;2023-07-09T05:17:58;8.90;;;4.40;;
64938;SDS011;51453;47.738;7.420;2023-07-09T05:20:23;7.75;;;3.88;;
64938;SDS011;51453;47.738;7.420;2023-07-09T05:22:50;8.70;;;4.85;;
64938;SDS011;51453;47.738;7.420;2023-07-09T05:25:16;8.65;;;3.65;;
64938;SDS011;51453;47.738;7.420;2023-07-09T05:27:42;10.32;;;4.18;;
64938;SDS011;51453;47.738;7.420;2023-07-09T05:30:08;5.35;;;3.80;;
64938;SDS011;51453;47.738;7.420;2023-07-09T05:32:34;7.13;;;3.80;;
64938;SDS011;51453;47.738;7.420;2023-07-09T05:35:01;7.55;;;3.83;;
64938;SDS011;51453;47.738;7.420;2023-07-09T05:37:27;6.40;;;3.70;;
64938;SDS011;51453;47.738;7.420;2023-07-09T05:39:53;7.35;;;3.58;;
64938;SDS011;51453;47.738;7.420;2023-07-09T05:42:18;9.75;;;3.60;;
64938;SDS011;51453;47.738;7.420;2023-07-09T05:44:44;10.40;;;3.60;;
64938;SDS011;51453;47.738;7.420;2023-07-09T05:47:09;7.72;;;3.90;;
64938;SDS011;51453;47.738;7.420;2023-07-09T05:49:35;8.40;;;3.63;;
64938;SDS011;51453;47.738;7.420;2023-07-09T05:52:00;6.28;;;3.50;;
64938;SDS011;51453;47.738;7.420;2023-07-09T05:54:26;6.25;;;3.65;;
64938;SDS011;51453;47.738;7.420;2023-07-09T05:56:52;7.45;;;3.47;;
64938;SDS011;51453;47.738;7.420;2023-07-09T05:59:17;8.80;;;3.60;;
64938;SDS011;51453;47.738;7.420;2023-07-09T06:01:43;8.77;;;4.10;;
64938;SDS011;51453;47.738;7.420;2023-07-09T06:04:08;10.00;;;3.90;;
64938;SDS011;51453;47.738;7.420;2023-07-09T06:06:36;7.38;;;3.70;;
64938;SDS011;51453;47.738;7.420;2023-07-09T06:09:02;5.63;;;3.70;;
64938;SDS011;51453;47.738;7.420;2023-07-09T06:11:27;6.97;;;3.67;;
64938;SDS011;51453;47.738;7.420;2023-07-09T06:13:53;7.65;;;3.70;;
64938;SDS011;51453;47.738;7.420;2023-07-09T06:16:19;6.47;;;3.80;;
64938;SDS011;51453;47.738;7.420;2023-07-09T06:18:45;5.00;;;3.50;;
64938;SDS011;51453;47.738;7.420;2023-07-09T06:21:10;6.43;;;3.45;;
64938;SDS011;51453;47.738;7.420;2023-07-09T06:23:37;9.00;;;3.92;;
64938;SDS011;51453;47.738;7.420;2023-07-09T06:26:03;6.60;;;4.00;;
64938;SDS011;51453;47.738;7.420;2023-07-09T06:28:29;5.50;;;3.83;;
64938;SDS011;51453;47.738;7.420;2023-07-09T06:30:55;10.95;;;3.88;;
64938;SDS011;51453;47.738;7.420;2023-07-09T06:33:22;7.07;;;3.85;;
64938;SDS011;51453;47.738;7.420;2023-07-09T06:35:49;6.18;;;3.60;;
64938;SDS011;51453;47.738;7.420;2023-07-09T06:38:17;7.80;;;3.40;;
64938;SDS011;51453;47.738;7.420;2023-07-09T06:40:43;9.50;;;3.70;;
64938;SDS011;51453;47.738;7.420;2023-07-09T06:43:09;8.93;;;4.13;;
64938;SDS011;51453;47.738;7.420;2023-07-09T06:45:35;7.35;;;3.38;;
64938;SDS011;51453;47.738;7.420;2023-07-09T06:48:01;5.80;;;3.30;;
64938;SDS011;51453;47.738;7.420;2023-07-09T06:50:26;7.70;;;3.55;;
64938;SDS011;51453;47.738;7.420;2023-07-09T06:52:52;6.32;;;4.07;;
64938;SDS011;51453;47.738;7.420;2023-07-09T06:55:18;7.47;;;3.70;;
64938;SDS011;51453;47.738;7.420;2023-07-09T06:57:43;4.80;;;3.50;;
64938;SDS011;51453;47.738;7.420;2023-07-09T07:00:09;6.55;;;3.53;;
64938;SDS011;51453;47.738;7.420;2023-07-09T07:02:35;6.35;;;3.53;;
64938;SDS011;51453;47.738;7.420;2023-07-09T07:05:01;8.35;;;3.92;;
64938;SDS011;51453;47.738;7.420;2023-07-09T07:07:27;7.20;;;3.78;;
64938;SDS011;51453;47.738;7.420;2023-07-09T07:09:53;5.18;;;3.67;;
64938;SDS011;51453;47.738;7.420;2023-07-09T07:12:23;4.95;;;3.42;;
64938;SDS011;51453;47.738;7.420;2023-07-09T07:14:54;6.82;;;3.90;;
64938;SDS011;51453;47.738;7.420;2023-07-09T07:17:20;5.10;;;3.60;;
64938;SDS011;51453;47.738;7.420;2023-07-09T07:19:47;5.90;;;3.53;;
64938;SDS011;51453;47.738;7.420;2023-07-09T07:22:14;9.93;;;3.85;;
64938;SDS011;51453;47.738;7.420;2023-07-09T07:24:39;5.55;;;3.40;;
64938;SDS011;51453;47.738;7.420;2023-07-09T07:27:05;11.38;;;3.97;;
64938;SDS011;51453;47.738;7.420;2023-07-09T07:29:31;10.55;;;3.92;;
64938;SDS011;51453;47.738;7.420;2023-07-09T07:31:56;5.15;;;3.83;;
64938;SDS011;51453;47.738;7.420;2023-07-09T07:34:22;6.22;;;3.65;;
64938;SDS011;51453;47.738;7.420;2023-07-09T07:36:49;6.90;;;3.92;;
64938;SDS011;51453;47.738;7.420;2023-07-09T07:39:15;6.00;;;3.67;;
64938;SDS011;51453;47.738;7.420;2023-07-09T07:41:41;8.65;;;3.70;;
64938;SDS011;51453;47.738;7.420;2023-07-09T07:44:06;6.28;;;3.58;;
64938;SDS011;51453;47.738;7.420;2023-07-09T07:46:33;8.13;;;3.70;;
64938;SDS011;51453;47.738;7.420;2023-07-09T07:48:59;7.40;;;3.80;;
64938;SDS011;51453;47.738;7.420;2023-07-09T07:51:25;5.50;;;3.60;;
64938;SDS011;51453;47.738;7.420;2023-07-09T07:53:51;6.63;;;3.75;;
64938;SDS011;51453;47.738;7.420;2023-07-09T07:56:18;6.03;;;3.42;;
64938;SDS011;51453;47.738;7.420;2023-07-09T07:58:43;6.25;;;4.00;;
64938;SDS011;51453;47.738;7.420;2023-07-09T08:01:09;7.68;;;3.65;;
64938;SDS011;51453;47.738;7.420;2023-07-09T08:03:35;7.47;;;4.10;;
64938;SDS011;51453;47.738;7.420;2023-07-09T08:06:00;6.35;;;3.70;;
64938;SDS011;51453;47.738;7.420;2023-07-09T08:08:26;5.53;;;3.53;;
64938;SDS011;51453;47.738;7.420;2023-07-09T08:10:59;3.67;;;3.35;;
64938;SDS011;51453;47.738;7.420;2023-07-09T08:13:26;8.23;;;3.58;;
64938;SDS011;51453;47.738;7.420;2023-07-09T08:15:52;6.63;;;3.40;;
64938;SDS011;51453;47.738;7.420;2023-07-09T08:18:17;8.50;;;3.97;;
64938;SDS011;51453;47.738;7.420;2023-07-09T08:20:43;4.43;;;3.53;;
64938;SDS011;51453;47.738;7.420;2023-07-09T08:23:10;5.68;;;3.85;;
64938;SDS011;51453;47.738;7.420;2023-07-09T08:25:35;7.95;;;3.92;;
64938;SDS011;51453;47.738;7.420;2023-07-09T08:28:01;6.55;;;3.72;;
64938;SDS011;51453;47.738;7.420;2023-07-09T08:30:27;6.30;;;3.72;;
64938;SDS011;51453;47.738;7.420;2023-07-09T08:32:52;5.97;;;3.50;;
64938;SDS011;51453;47.738;7.420;2023-07-09T08:35:18;5.57;;;3.60;;
64938;SDS011;51453;47.738;7.420;2023-07-09T08:37:43;6.60;;;3.65;;
64938;SDS011;51453;47.738;7.420;2023-07-09T08:40:18;4.65;;;3.55;;
64938;SDS011;51453;47.738;7.420;2023-07-09T08:42:45;6.03;;;3.53;;
64938;SDS011;51453;47.738;7.420;2023-07-09T08:47:41;6.55;;;3.33;;
64938;SDS011;51453;47.738;7.420;2023-07-09T08:50:19;4.68;;;3.53;;
64938;SDS011;51453;47.738;7.420;2023-07-09T08:52:50;6.22;;;3.47;;
64938;SDS011;51453;47.738;7.420;2023-07-09T08:55:20;6.95;;;3.42;;
64938;SDS011;51453;47.738;7.420;2023-07-09T08:57:54;5.05;;;3.42;;
64938;SDS011;51453;47.738;7.420;2023-07-09T09:00:29;6.50;;;3.42;;
64938;SDS011;51453;47.738;7.420;2023-07-09T09:03:06;4.50;;;3.55;;
64938;SDS011;51453;47.738;7.420;2023-07-09T09:05:39;7.97;;;3.35;;
64938;SDS011;51453;47.738;7.420;2023-07-09T09:08:27;6.82;;;3.67;;
64938;SDS011;51453;47.738;7.420;2023-07-09T09:10:57;5.80;;;3.63;;
64938;SDS011;51453;47.738;7.420;2023-07-09T09:13:37;4.70;;;3.20;;
64938;SDS011;51453;47.738;7.420;2023-07-09T09:16:04;6.43;;;3.45;;
64938;SDS011;51453;47.738;7.420;2023-07-09T09:18:42;5.28;;;3.55;;
64938;SDS011;51453;47.738;7.420;2023-07-09T09:24:26;6.00;;;3.47;;
64938;SDS011;51453;47.738;7.420;2023-07-09T09:26:41;5.82;;;3.40;;
64938;SDS011;51453;47.738;7.420;2023-07-09T09:29:12;4.95;;;3.22;;
64938;SDS011;51453;47.738;7.420;2023-07-09T09:31:39;6.05;;;3.70;;
64938;SDS011;51453;47.738;7.420;2023-07-09T09:34:16;5.80;;;3.85;;
64938;SDS011;51453;47.738;7.420;2023-07-09T09:36:46;4.30;;;3.38;;
64938;SDS011;51453;47.738;7.420;2023-07-09T09:39:12;5.38;;;3.33;;
64938;SDS011;51453;47.738;7.420;2023-07-09T09:41:39;5.43;;;3.38;;
64938;SDS011;51453;47.738;7.420;2023-07-09T09:44:15;7.30;;;3.67;;
64938;SDS011;51453;47.738;7.420;2023-07-09T09:46:44;4.50;;;3.38;;
64938;SDS011;51453;47.738;7.420;2023-07-09T09:49:09;6.18;;;3.95;;
64938;SDS011;51453;47.738;7.420;2023-07-09T09:51:35;6.20;;;3.85;;
64938;SDS011;51453;47.738;7.420;2023-07-09T09:54:08;5.35;;;3.38;;
64938;SDS011;51453;47.738;7.420;2023-07-09T09:56:42;5.32;;;3.55;;
64938;SDS011;51453;47.738;7.420;2023-07-09T09:59:19;5.82;;;3.20;;
64938;SDS011;51453;47.738;7.420;2023-07-09T10:01:46;6.55;;;3.80;;
64938;SDS011;51453;47.738;7.420;2023-07-09T10:04:15;4.43;;;3.47;;
64938;SDS011;51453;47.738;7.420;2023-07-09T10:06:50;9.45;;;3.70;;
64938;SDS011;51453;47.738;7.420;2023-07-09T10:09:24;11.40;;;3.80;;
64938;SDS011;51453;47.738;7.420;2023-07-09T10:14:45;6.43;;;3.42;;
64938;SDS011;51453;47.738;7.420;2023-07-09T10:25:44;7.35;;;3.40;;
64938;SDS011;51453;47.738;7.420;2023-07-09T10:39:49;7.05;;;3.70;;
64938;SDS011;51453;47.738;7.420;2023-07-09T10:42:30;6.72;;;3.40;;
64938;SDS011;51453;47.738;7.420;2023-07-09T10:45:02;3.97;;;3.20;;
64938;SDS011;51453;47.738;7.420;2023-07-09T10:47:35;5.18;;;3.60;;
64938;SDS011;51453;47.738;7.420;2023-07-09T10:50:05;8.07;;;3.38;;
64938;SDS011;51453;47.738;7.420;2023-07-09T10:52:37;4.75;;;3.50;;
64938;SDS011;51453;47.738;7.420;2023-07-09T10:55:22;5.15;;;3.38;;
64938;SDS011;51453;47.738;7.420;2023-07-09T10:58:02;8.65;;;3.92;;
64938;SDS011;51453;47.738;7.420;2023-07-09T11:00:44;6.25;;;3.60;;
64938;SDS011;51453;47.738;7.420;2023-07-09T11:03:14;6.18;;;3.35;;
64938;SDS011;51453;47.738;7.420;2023-07-09T11:05:43;7.60;;;3.38;;
64938;SDS011;51453;47.738;7.420;2023-07-09T11:08:11;7.72;;;3.40;;
64938;SDS011;51453;47.738;7.420;2023-07-09T11:13:12;3.88;;;3.10;;
64938;SDS011;51453;47.738;7.420;2023-07-09T11:15:43;5.63;;;3.20;;
64938;SDS011;51453;47.738;7.420;2023-07-09T11:18:21;4.70;;;3.03;;
64938;SDS011;51453;47.738;7.420;2023-07-09T11:21:40;7.82;;;3.08;;
64938;SDS011;51453;47.738;7.420;2023-07-09T11:23:55;10.32;;;3.40;;
64938;SDS011;51453;47.738;7.420;2023-07-09T11:31:35;6.72;;;2.97;;
64938;SDS011;51453;47.738;7.420;2023-07-09T11:34:08;5.88;;;3.10;;
64938;SDS011;51453;47.738;7.420;2023-07-09T11:36:45;5.80;;;2.97;;
64938;SDS011;51453;47.738;7.420;2023-07-09T11:39:20;5.40;;;3.28;;
64938;SDS011;51453;47.738;7.420;2023-07-09T11:41:51;5.05;;;3.17;;
64938;SDS011;51453;47.738;7.420;2023-07-09T11:47:12;6.07;;;3.10;;
64938;SDS011;51453;47.738;7.420;2023-07-09T11:49:51;5.70;;;2.92;;
64938;SDS011;51453;47.738;7.420;2023-07-09T11:52:39;5.80;;;2.63;;
64938;SDS011;51453;47.738;7.420;2023-07-09T11:57:52;5.20;;;2.75;;
64938;SDS011;51453;47.738;7.420;2023-07-09T12:00:22;4.05;;;2.92;;
64938;SDS011;51453;47.738;7.420;2023-07-09T12:02:50;4.68;;;2.97;;
64938;SDS011;51453;47.738;7.420;2023-07-09T12:05:19;5.32;;;2.92;;
64938;SDS011;51453;47.738;7.420;2023-07-09T12:07:51;7.53;;;3.00;;
64938;SDS011;51453;47.738;7.420;2023-07-09T12:10:18;3.35;;;2.60;;
64938;SDS011;51453;47.738;7.420;2023-07-09T12:12:47;5.40;;;3.00;;
64938;SDS011;51453;47.738;7.420;2023-07-09T12:15:21;4.75;;;2.85;;
64938;SDS011;51453;47.738;7.420;2023-07-09T12:17:54;6.85;;;2.90;;
64938;SDS011;51453;47.738;7.420;2023-07-09T12:20:21;5.68;;;3.17;;
64938;SDS011;51453;47.738;7.420;2023-07-09T12:22:47;4.40;;;2.45;;
64938;SDS011;51453;47.738;7.420;2023-07-09T12:25:18;6.40;;;2.83;;
64938;SDS011;51453;47.738;7.420;2023-07-09T12:27:47;6.90;;;2.95;;
64938;SDS011;51453;47.738;7.420;2023-07-09T12:30:12;5.30;;;3.30;;
64938;SDS011;51453;47.738;7.420;2023-07-09T12:32:48;3.92;;;2.63;;
64938;SDS011;51453;47.738;7.420;2023-07-09T12:35:17;6.47;;;3.13;;
64938;SDS011;51453;47.738;7.420;2023-07-09T12:37:44;5.40;;;2.55;;
64938;SDS011;51453;47.738;7.420;2023-07-09T12:40:13;4.80;;;2.90;;
64938;SDS011;51453;47.738;7.420;2023-07-09T12:42:41;9.63;;;2.88;;
64938;SDS011;51453;47.738;7.420;2023-07-09T12:45:17;8.70;;;2.80;;
64938;SDS011;51453;47.738;7.420;2023-07-09T12:47:45;6.15;;;3.40;;
64938;SDS011;51453;47.738;7.420;2023-07-09T12:52:55;5.95;;;3.05;;
64938;SDS011;51453;47.738;7.420;2023-07-09T12:55:25;4.25;;;2.67;;
64938;SDS011;51453;47.738;7.420;2023-07-09T12:57:55;6.15;;;2.67;;
64938;SDS011;51453;47.738;7.420;2023-07-09T13:00:22;6.03;;;3.15;;
64938;SDS011;51453;47.738;7.420;2023-07-09T13:02:54;4.40;;;2.85;;
64938;SDS011;51453;47.738;7.420;2023-07-09T13:05:22;4.88;;;2.78;;
64938;SDS011;51453;47.738;7.420;2023-07-09T13:07:50;4.32;;;3.03;;
64938;SDS011;51453;47.738;7.420;2023-07-09T13:10:27;5.75;;;3.22;;
64938;SDS011;51453;47.738;7.420;2023-07-09T13:12:56;6.15;;;3.10;;
64938;SDS011;51453;47.738;7.420;2023-07-09T13:18:06;7.03;;;3.43;;
64938;SDS011;51453;47.738;7.420;2023-07-09T13:20:37;5.60;;;2.90;;
64938;SDS011;51453;47.738;7.420;2023-07-09T13:23:14;7.13;;;2.78;;
64938;SDS011;51453;47.738;7.420;2023-07-09T13:25:40;7.30;;;3.40;;
64938;SDS011;51453;47.738;7.420;2023-07-09T13:28:28;4.72;;;2.67;;
64938;SDS011;51453;47.738;7.420;2023-07-09T13:31:08;4.88;;;3.10;;
64938;SDS011;51453;47.738;7.420;2023-07-09T13:33:37;5.05;;;2.85;;
64938;SDS011;51453;47.738;7.420;2023-07-09T13:36:03;9.98;;;2.90;;
64938;SDS011;51453;47.738;7.420;2023-07-09T13:38:29;6.22;;;3.03;;
64938;SDS011;51453;47.738;7.420;2023-07-09T13:40:56;6.22;;;2.80;;
64938;SDS011;51453;47.738;7.420;2023-07-09T13:43:28;10.50;;;3.40;;
64938;SDS011;51453;47.738;7.420;2023-07-09T13:45:56;7.00;;;2.80;;
64938;SDS011;51453;47.738;7.420;2023-07-09T13:48:22;5.95;;;2.88;;
64938;SDS011;51453;47.738;7.420;2023-07-09T13:50:49;4.43;;;3.20;;
64938;SDS011;51453;47.738;7.420;2023-07-09T13:53:18;6.93;;;2.97;;
64938;SDS011;51453;47.738;7.420;2023-07-09T13:55:45;4.53;;;3.10;;
64938;SDS011;51453;47.738;7.420;2023-07-09T13:58:12;6.72;;;2.97;;
64938;SDS011;51453;47.738;7.420;2023-07-09T14:00:40;8.05;;;3.08;;
64938;SDS011;51453;47.738;7.420;2023-07-09T14:03:18;5.93;;;3.35;;
64938;SDS011;51453;47.738;7.420;2023-07-09T14:05:46;4.37;;;3.07;;
64938;SDS011;51453;47.738;7.420;2023-07-09T14:08:12;5.28;;;3.15;;
64938;SDS011;51453;47.738;7.420;2023-07-09T14:10:38;4.07;;;2.78;;
64938;SDS011;51453;47.738;7.420;2023-07-09T14:13:04;5.95;;;3.03;;
64938;SDS011;51453;47.738;7.420;2023-07-09T14:15:30;5.93;;;3.42;;
64938;SDS011;51453;47.738;7.420;2023-07-09T14:17:56;5.85;;;3.13;;
64938;SDS011;51453;47.738;7.420;2023-07-09T14:20:23;7.82;;;3.17;;
64938;SDS011;51453;47.738;7.420;2023-07-09T14:22:49;6.60;;;3.33;;
64938;SDS011;51453;47.738;7.420;2023-07-09T14:25:17;4.68;;;3.20;;
64938;SDS011;51453;47.738;7.420;2023-07-09T14:27:48;4.30;;;3.15;;
64938;SDS011;51453;47.738;7.420;2023-07-09T14:30:19;5.50;;;3.03;;
64938;SDS011;51453;47.738;7.420;2023-07-09T14:32:47;6.35;;;3.05;;
64938;SDS011;51453;47.738;7.420;2023-07-09T14:35:15;5.88;;;3.05;;
64938;SDS011;51453;47.738;7.420;2023-07-09T14:37:42;5.10;;;3.00;;
64938;SDS011;51453;47.738;7.420;2023-07-09T14:40:08;11.18;;;3.83;;
64938;SDS011;51453;47.738;7.420;2023-07-09T14:42:36;7.47;;;2.90;;
64938;SDS011;51453;47.738;7.420;2023-07-09T14:45:03;6.15;;;3.22;;
64938;SDS011;51453;47.738;7.420;2023-07-09T14:47:30;12.02;;;3.35;;
64938;SDS011;51453;47.738;7.420;2023-07-09T14:49:56;6.05;;;3.08;;
64938;SDS011;51453;47.738;7.420;2023-07-09T14:52:22;8.07;;;3.03;;
64938;SDS011;51453;47.738;7.420;2023-07-09T14:54:47;6.32;;;3.15;;
64938;SDS011;51453;47.738;7.420;2023-07-09T14:59:47;9.10;;;3.50;;
64938;SDS011;51453;47.738;7.420;2023-07-09T15:02:23;8.32;;;3.05;;
64938;SDS011;51453;47.738;7.420;2023-07-09T15:04:56;6.05;;;3.30;;
64938;SDS011;51453;47.738;7.420;2023-07-09T15:07:22;5.40;;;3.10;;
64938;SDS011;51453;47.738;7.420;2023-07-09T15:09:54;6.30;;;3.28;;
64938;SDS011;51453;47.738;7.420;2023-07-09T15:12:22;7.97;;;3.42;;
64938;SDS011;51453;47.738;7.420;2023-07-09T15:14:55;4.93;;;3.40;;
64938;SDS011;51453;47.738;7.420;2023-07-09T15:17:25;5.43;;;3.20;;
64938;SDS011;51453;47.738;7.420;2023-07-09T15:19:51;7.40;;;3.53;;
64938;SDS011;51453;47.738;7.420;2023-07-09T15:22:18;9.40;;;3.63;;
64938;SDS011;51453;47.738;7.420;2023-07-09T15:24:56;7.82;;;3.25;;
64938;SDS011;51453;47.738;7.420;2023-07-09T15:27:22;9.45;;;3.33;;
64938;SDS011;51453;47.738;7.420;2023-07-09T15:29:48;6.43;;;3.60;;
64938;SDS011;51453;47.738;7.420;2023-07-09T15:32:14;8.23;;;3.40;;
64938;SDS011;51453;47.738;7.420;2023-07-09T15:34:40;5.32;;;3.22;;
64938;SDS011;51453;47.738;7.420;2023-07-09T15:37:11;9.55;;;3.00;;
64938;SDS011;51453;47.738;7.420;2023-07-09T15:39:39;4.70;;;3.30;;
64938;SDS011;51453;47.738;7.420;2023-07-09T15:42:08;5.18;;;3.10;;
64938;SDS011;51453;47.738;7.420;2023-07-09T15:44:35;11.40;;;3.47;;
64938;SDS011;51453;47.738;7.420;2023-07-09T15:47:01;6.75;;;3.45;;
64938;SDS011;51453;47.738;7.420;2023-07-09T15:49:29;7.72;;;3.38;;